createdAt,value
2019-06-26T00:00:37.909Z,20.78
2019-06-26T00:01:37.901Z,20.76
2019-06-26T00:02:37.942Z,20.75
2019-06-26T00:03:37.909Z,20.72
2019-06-26T00:04:37.914Z,20.68
2019-06-26T00:05:37.863Z,20.64
2019-06-26T00:06:37.848Z,20.61
2019-06-26T00:07:37.850Z,20.61
2019-06-26T00:08:37.818Z,20.64
2019-06-26T00:09:37.809Z,20.63
2019-06-26T00:10:37.798Z,20.63
2019-06-26T00:11:37.788Z,20.63
2019-06-26T00:12:37.787Z,20.57
2019-06-26T00:13:37.773Z,20.56
2019-06-26T00:14:38.826Z,20.54
2019-06-26T00:15:37.752Z,20.53
2019-06-26T00:16:37.746Z,20.51
2019-06-26T00:17:37.734Z,20.51
2019-06-26T00:18:37.714Z,20.48
2019-06-26T00:19:37.751Z,20.50
2019-06-26T00:20:37.705Z,20.46
2019-06-26T00:21:37.686Z,20.46
2019-06-26T00:22:37.666Z,20.46
2019-06-26T00:23:37.718Z,20.46
2019-06-26T00:24:37.653Z,20.46
2019-06-26T00:25:37.634Z,20.51
2019-06-26T00:26:37.629Z,20.51
2019-06-26T00:27:37.613Z,20.50
2019-06-26T00:28:37.621Z,20.44
2019-06-26T00:29:37.612Z,20.40
2019-06-26T00:30:37.598Z,20.35
2019-06-26T00:31:37.571Z,20.33
2019-06-26T00:32:37.562Z,20.30
2019-06-26T00:33:37.590Z,20.25
2019-06-26T00:34:37.551Z,20.20
2019-06-26T00:35:37.521Z,20.20
2019-06-26T00:36:37.520Z,20.20
2019-06-26T00:37:37.524Z,20.20
2019-06-26T00:38:40.031Z,20.19
2019-06-26T00:39:37.500Z,20.15
2019-06-26T00:40:37.489Z,20.12
2019-06-26T00:41:37.470Z,20.12
2019-06-26T00:42:37.460Z,20.12
2019-06-26T00:43:42.358Z,20.13
2019-06-26T00:44:38.450Z,20.15
2019-06-26T00:45:37.430Z,20.15
2019-06-26T00:46:37.412Z,20.16
2019-06-26T00:47:37.406Z,20.15
2019-06-26T00:48:37.391Z,20.13
2019-06-26T00:49:37.393Z,20.12
2019-06-26T00:50:37.368Z,20.08
2019-06-26T00:51:37.356Z,20.07
2019-06-26T00:52:37.346Z,20.07
2019-06-26T00:53:37.345Z,20.08
2019-06-26T00:54:37.326Z,20.07
2019-06-26T00:55:37.325Z,20.08
2019-06-26T00:56:37.304Z,20.12
2019-06-26T00:57:37.323Z,20.10
2019-06-26T00:58:37.284Z,20.07
2019-06-26T00:59:37.292Z,20.08
2019-06-26T01:00:37.302Z,20.07
2019-06-26T01:01:37.253Z,20.08
2019-06-26T01:02:37.262Z,20.10
2019-06-26T01:03:37.233Z,20.12
2019-06-26T01:04:37.233Z,20.10
2019-06-26T01:05:37.228Z,20.10
2019-06-26T01:06:37.215Z,20.08
2019-06-26T01:07:37.552Z,20.07
2019-06-26T01:08:37.181Z,20.04
2019-06-26T01:09:37.171Z,20.05
2019-06-26T01:10:37.166Z,20.08
2019-06-26T01:11:37.241Z,20.07
2019-06-26T01:12:37.132Z,20.08
2019-06-26T01:13:37.128Z,20.08
2019-06-26T01:14:37.121Z,20.08
2019-06-26T01:15:37.100Z,20.08
2019-06-26T01:16:37.089Z,20.10
2019-06-26T01:17:37.104Z,20.10
2019-06-26T01:18:37.079Z,20.08
2019-06-26T01:19:37.061Z,20.10
2019-06-26T01:20:37.054Z,20.10
2019-06-26T01:21:37.047Z,20.08
2019-06-26T01:22:37.520Z,20.08
2019-06-26T01:23:37.006Z,20.12
2019-06-26T01:24:36.996Z,20.15
2019-06-26T01:25:36.996Z,20.15
2019-06-26T01:26:36.976Z,20.16
2019-06-26T01:27:36.977Z,20.16
2019-06-26T01:28:36.966Z,20.19
2019-06-26T01:29:36.947Z,20.20
2019-06-26T01:30:36.946Z,20.12
2019-06-26T01:31:36.925Z,20.05
2019-06-26T01:32:36.927Z,20.07
2019-06-26T01:33:36.922Z,20.04
2019-06-26T01:34:36.893Z,19.98
2019-06-26T01:35:36.895Z,20.00
2019-06-26T01:36:36.896Z,19.98
2019-06-26T01:37:36.874Z,20.00
2019-06-26T01:38:36.911Z,19.98
2019-06-26T01:39:36.844Z,19.98
2019-06-26T01:40:36.843Z,20.00
2019-06-26T01:41:36.830Z,19.98
2019-06-26T01:42:36.804Z,19.98
2019-06-26T01:43:36.792Z,19.97
2019-06-26T01:44:36.790Z,19.94
2019-06-26T01:45:36.791Z,19.94
2019-06-26T01:46:37.310Z,19.94
2019-06-26T01:47:36.759Z,19.89
2019-06-26T01:48:36.739Z,19.89
2019-06-26T01:49:36.729Z,19.87
2019-06-26T01:50:36.730Z,19.87
2019-06-26T01:51:36.721Z,19.90
2019-06-26T01:52:36.698Z,19.89
2019-06-26T01:53:36.696Z,19.87
2019-06-26T01:54:36.678Z,19.86
2019-06-26T01:55:36.677Z,19.87
2019-06-26T01:56:36.657Z,19.87
2019-06-26T01:57:36.656Z,19.82
2019-06-26T01:58:36.638Z,19.80
2019-06-26T01:59:36.629Z,19.80
2019-06-26T02:00:36.618Z,19.80
2019-06-26T02:01:36.607Z,19.79
2019-06-26T02:02:36.598Z,19.78
2019-06-26T02:03:36.585Z,19.79
2019-06-26T02:04:36.574Z,19.79
2019-06-26T02:05:36.554Z,19.79
2019-06-26T02:06:36.546Z,19.78
2019-06-26T02:07:36.552Z,19.76
2019-06-26T02:08:36.524Z,19.76
2019-06-26T02:09:36.514Z,19.76
2019-06-26T02:10:36.563Z,19.72
2019-06-26T02:11:36.552Z,19.71
2019-06-26T02:12:36.518Z,19.72
2019-06-26T02:13:36.495Z,19.70
2019-06-26T02:14:36.461Z,19.70
2019-06-26T02:15:36.529Z,19.71
2019-06-26T02:16:36.442Z,19.70
2019-06-26T02:17:36.431Z,19.68
2019-06-26T02:18:36.471Z,19.68
2019-06-26T02:19:36.431Z,19.70
2019-06-26T02:20:36.398Z,19.68
2019-06-26T02:21:36.381Z,19.68
2019-06-26T02:22:36.370Z,19.67
2019-06-26T02:23:36.380Z,19.67
2019-06-26T02:24:36.349Z,19.67
2019-06-26T02:25:36.339Z,19.64
2019-06-26T02:26:36.328Z,19.61
2019-06-26T02:27:36.319Z,19.64
2019-06-26T02:28:36.325Z,19.62
2019-06-26T02:29:36.303Z,19.65
2019-06-26T02:30:36.291Z,19.68
2019-06-26T02:31:36.287Z,19.67
2019-06-26T02:32:36.269Z,19.67
2019-06-26T02:33:36.274Z,19.64
2019-06-26T02:34:36.253Z,19.61
2019-06-26T02:35:36.237Z,19.57
2019-06-26T02:36:36.227Z,19.49
2019-06-26T02:37:36.219Z,19.42
2019-06-26T02:38:36.218Z,19.39
2019-06-26T02:39:36.185Z,19.35
2019-06-26T02:40:36.185Z,19.39
2019-06-26T02:41:36.174Z,19.39
2019-06-26T02:42:36.154Z,19.39
2019-06-26T02:43:36.176Z,19.38
2019-06-26T02:44:52.473Z,19.27
2019-06-26T02:45:37.155Z,19.24
2019-06-26T02:46:36.113Z,19.16
2019-06-26T02:47:36.123Z,19.10
2019-06-26T02:48:36.093Z,19.10
2019-06-26T02:49:36.088Z,19.12
2019-06-26T02:50:36.070Z,19.10
2019-06-26T02:51:36.061Z,19.12
2019-06-26T02:52:36.063Z,19.09
2019-06-26T02:53:36.041Z,19.07
2019-06-26T02:54:36.030Z,19.06
2019-06-26T02:55:36.070Z,19.05
2019-06-26T02:56:36.016Z,19.05
2019-06-26T02:57:36.001Z,19.07
2019-06-26T02:58:35.988Z,19.07
2019-06-26T02:59:35.999Z,19.07
2019-06-26T03:00:35.959Z,19.06
2019-06-26T03:01:35.949Z,18.97
2019-06-26T03:02:35.951Z,18.93
2019-06-26T03:03:35.944Z,18.89
2019-06-26T03:04:35.918Z,18.83
2019-06-26T03:05:35.917Z,18.78
2019-06-26T03:06:35.895Z,18.82
2019-06-26T03:07:35.885Z,18.84
2019-06-26T03:08:35.895Z,18.86
2019-06-26T03:09:35.865Z,18.87
2019-06-26T03:10:35.914Z,18.86
2019-06-26T03:11:35.904Z,18.82
2019-06-26T03:12:35.835Z,18.82
2019-06-26T03:13:35.833Z,18.83
2019-06-26T03:14:35.814Z,18.84
2019-06-26T03:15:35.812Z,18.82
2019-06-26T03:16:35.826Z,18.82
2019-06-26T03:17:35.799Z,18.79
2019-06-26T03:18:35.770Z,18.83
2019-06-26T03:19:35.771Z,18.84
2019-06-26T03:20:35.771Z,18.87
2019-06-26T03:21:35.743Z,18.89
2019-06-26T03:22:35.721Z,18.87
2019-06-26T03:23:35.714Z,18.89
2019-06-26T03:24:35.700Z,18.93
2019-06-26T03:25:35.702Z,18.93
2019-06-26T03:26:35.679Z,18.91
2019-06-26T03:27:35.670Z,18.89
2019-06-26T03:28:35.649Z,18.87
2019-06-26T03:29:35.660Z,18.86
2019-06-26T03:30:35.652Z,18.86
2019-06-26T03:31:35.642Z,18.87
2019-06-26T03:32:35.619Z,18.89
2019-06-26T03:33:35.628Z,18.89
2019-06-26T03:34:35.588Z,18.90
2019-06-26T03:35:35.598Z,18.94
2019-06-26T03:36:35.609Z,18.96
2019-06-26T03:37:35.581Z,18.96
2019-06-26T03:38:35.547Z,18.96
2019-06-26T03:39:35.536Z,18.97
2019-06-26T03:40:35.526Z,18.99
2019-06-26T03:41:35.516Z,19.01
2019-06-26T03:42:35.522Z,19.01
2019-06-26T03:43:35.842Z,19.05
2019-06-26T03:44:35.484Z,19.06
2019-06-26T03:45:35.474Z,19.05
2019-06-26T03:46:35.475Z,19.05
2019-06-26T03:47:35.466Z,19.05
2019-06-26T03:48:35.461Z,19.10
2019-06-26T03:49:35.431Z,19.15
2019-06-26T03:50:35.423Z,19.20
2019-06-26T03:51:35.415Z,19.21
2019-06-26T03:52:35.401Z,19.21
2019-06-26T03:53:35.415Z,19.23
2019-06-26T03:54:35.373Z,19.24
2019-06-26T03:55:35.361Z,19.24
2019-06-26T03:56:35.353Z,19.21
2019-06-26T03:57:35.549Z,19.21
2019-06-26T03:58:35.330Z,19.23
2019-06-26T03:59:35.326Z,19.27
2019-06-26T04:00:35.310Z,19.27
2019-06-26T04:01:35.311Z,19.34
2019-06-26T04:02:35.294Z,19.39
2019-06-26T04:03:35.277Z,19.42
2019-06-26T04:04:35.282Z,19.46
2019-06-26T04:05:35.297Z,19.50
2019-06-26T04:06:35.909Z,19.52
2019-06-26T04:07:35.237Z,19.53
2019-06-26T04:08:35.250Z,19.55
2019-06-26T04:09:35.240Z,19.57
2019-06-26T04:10:35.222Z,19.55
2019-06-26T04:11:35.196Z,19.60
2019-06-26T04:12:35.245Z,19.61
2019-06-26T04:13:35.182Z,19.62
2019-06-26T04:14:35.185Z,19.64
2019-06-26T04:15:42.177Z,19.67
2019-06-26T04:16:36.135Z,19.70
2019-06-26T04:17:35.134Z,19.75
2019-06-26T04:18:35.123Z,19.72
2019-06-26T04:19:35.119Z,19.71
2019-06-26T04:20:35.114Z,19.71
2019-06-26T04:21:35.074Z,19.72
2019-06-26T04:22:35.104Z,19.71
2019-06-26T04:23:35.062Z,19.65
2019-06-26T04:24:35.053Z,19.62
2019-06-26T04:25:37.824Z,19.62
2019-06-26T04:26:35.041Z,19.64
2019-06-26T04:27:35.028Z,19.64
2019-06-26T04:28:35.010Z,19.61
2019-06-26T04:29:34.990Z,19.55
2019-06-26T04:30:35.000Z,19.58
2019-06-26T04:31:34.970Z,19.61
2019-06-26T04:32:34.967Z,19.62
2019-06-26T04:33:34.967Z,19.64
2019-06-26T04:34:34.948Z,19.64
2019-06-26T04:35:34.939Z,19.64
2019-06-26T04:36:34.928Z,19.67
2019-06-26T04:37:34.915Z,19.64
2019-06-26T04:38:34.908Z,19.55
2019-06-26T04:39:34.907Z,19.52
2019-06-26T04:40:34.886Z,19.45
2019-06-26T04:41:34.866Z,19.47
2019-06-26T04:42:34.856Z,19.47
2019-06-26T04:43:34.836Z,19.49
2019-06-26T04:44:34.826Z,19.53
2019-06-26T04:45:34.850Z,19.55
2019-06-26T04:46:34.825Z,19.58
2019-06-26T04:47:34.795Z,19.61
2019-06-26T04:48:34.784Z,19.60
2019-06-26T04:49:34.777Z,19.58
2019-06-26T04:50:34.794Z,19.60
2019-06-26T04:51:34.783Z,19.53
2019-06-26T04:52:34.788Z,19.52
2019-06-26T04:53:34.733Z,19.50
2019-06-26T04:54:34.726Z,19.53
2019-06-26T04:55:34.732Z,19.58
2019-06-26T04:56:34.732Z,19.62
2019-06-26T04:57:34.693Z,19.67
2019-06-26T04:58:34.680Z,19.65
2019-06-26T04:59:34.670Z,19.62
2019-06-26T05:00:34.660Z,19.64
2019-06-26T05:01:34.691Z,19.64
2019-06-26T05:02:34.640Z,19.60
2019-06-26T05:03:34.631Z,19.62
2019-06-26T05:04:34.647Z,19.62
2019-06-26T05:05:39.540Z,19.68
2019-06-26T05:06:35.589Z,19.75
2019-06-26T05:07:34.591Z,19.80
2019-06-26T05:08:34.584Z,19.86
2019-06-26T05:09:34.559Z,19.92
2019-06-26T05:10:34.558Z,19.92
2019-06-26T05:11:34.553Z,19.97
2019-06-26T05:12:34.537Z,20.02
2019-06-26T05:13:34.517Z,20.02
2019-06-26T05:14:34.506Z,20.05
2019-06-26T05:15:34.511Z,20.04
2019-06-26T05:16:34.486Z,19.87
2019-06-26T05:17:34.469Z,19.75
2019-06-26T05:18:34.466Z,19.70
2019-06-26T05:19:34.455Z,19.71
2019-06-26T05:20:34.465Z,19.67
2019-06-26T05:21:34.427Z,19.65
2019-06-26T05:22:34.423Z,19.65
2019-06-26T05:23:34.412Z,19.71
2019-06-26T05:24:34.394Z,19.78
2019-06-26T05:25:34.402Z,19.89
2019-06-26T05:26:34.373Z,20.01
2019-06-26T05:27:34.368Z,20.08
2019-06-26T05:28:34.375Z,20.12
2019-06-26T05:29:34.381Z,20.15
2019-06-26T05:30:34.371Z,20.25
2019-06-26T05:31:34.346Z,20.38
2019-06-26T05:32:34.311Z,20.48
2019-06-26T05:33:34.312Z,20.50
2019-06-26T05:34:34.291Z,20.46
2019-06-26T05:35:35.288Z,20.33
2019-06-26T05:36:34.271Z,20.23
2019-06-26T05:37:34.267Z,20.10
2019-06-26T05:38:55.250Z,20.02
2019-06-26T05:39:34.239Z,19.92
2019-06-26T05:40:34.242Z,19.87
2019-06-26T05:41:34.269Z,19.92
2019-06-26T05:42:34.210Z,19.97
2019-06-26T05:43:34.202Z,19.90
2019-06-26T05:44:34.198Z,19.98
2019-06-26T05:45:34.178Z,20.07
2019-06-26T05:46:34.183Z,20.13
2019-06-26T05:47:34.196Z,20.19
2019-06-26T05:48:34.147Z,20.26
2019-06-26T05:49:34.130Z,20.34
2019-06-26T05:50:34.130Z,20.33
2019-06-26T05:51:34.128Z,20.31
2019-06-26T05:52:34.108Z,20.30
2019-06-26T05:53:34.094Z,20.37
2019-06-26T05:54:34.075Z,20.41
2019-06-26T05:55:34.079Z,20.40
2019-06-26T05:56:34.054Z,20.31
2019-06-26T05:57:34.045Z,20.13
2019-06-26T05:58:34.040Z,20.05
2019-06-26T05:59:34.023Z,20.01
2019-06-26T06:00:34.034Z,19.95
2019-06-26T06:01:34.004Z,19.97
2019-06-26T06:02:34.013Z,20.01
2019-06-26T06:03:33.983Z,20.08
2019-06-26T06:04:33.972Z,20.16
2019-06-26T06:05:33.972Z,20.19
2019-06-26T06:06:41.872Z,20.19
2019-06-26T06:07:34.951Z,20.12
2019-06-26T06:08:33.921Z,20.01
2019-06-26T06:09:33.982Z,19.86
2019-06-26T06:10:33.911Z,19.78
2019-06-26T06:11:33.891Z,19.67
2019-06-26T06:12:33.938Z,19.50
2019-06-26T06:13:33.931Z,19.43
2019-06-26T06:14:33.893Z,19.49
2019-06-26T06:15:33.849Z,19.55
2019-06-26T06:16:46.849Z,19.55
2019-06-26T06:17:34.831Z,19.61
2019-06-26T06:18:33.828Z,19.68
2019-06-26T06:19:33.802Z,19.62
2019-06-26T06:20:33.799Z,19.60
2019-06-26T06:21:33.807Z,19.60
2019-06-26T06:22:33.777Z,19.65
2019-06-26T06:23:33.767Z,19.71
2019-06-26T06:24:33.748Z,19.78
2019-06-26T06:25:33.746Z,19.78
2019-06-26T06:26:33.727Z,19.79
2019-06-26T06:27:34.346Z,19.83
2019-06-26T06:28:33.727Z,19.90
2019-06-26T06:29:33.695Z,20.00
2019-06-26T06:30:33.716Z,20.04
2019-06-26T06:31:33.701Z,20.05
2019-06-26T06:32:33.678Z,20.02
2019-06-26T06:33:33.664Z,20.01
2019-06-26T06:34:33.645Z,19.98
2019-06-26T06:35:33.636Z,19.89
2019-06-26T06:36:33.623Z,19.70
2019-06-26T06:37:33.697Z,19.65
2019-06-26T06:38:33.603Z,19.61
2019-06-26T06:39:33.613Z,19.71
2019-06-26T06:40:33.581Z,19.79
2019-06-26T06:41:33.581Z,19.83
2019-06-26T06:42:33.600Z,19.82
2019-06-26T06:43:33.551Z,19.79
2019-06-26T06:44:33.551Z,19.76
2019-06-26T06:45:33.533Z,19.76
2019-06-26T06:46:33.510Z,19.82
2019-06-26T06:47:33.520Z,19.86
2019-06-26T06:48:33.489Z,19.85
2019-06-26T06:49:33.510Z,19.78
2019-06-26T06:50:33.469Z,19.61
2019-06-26T06:51:33.465Z,19.57
2019-06-26T06:52:33.536Z,19.55
2019-06-26T06:53:33.438Z,19.64
2019-06-26T06:54:33.442Z,19.71
2019-06-26T06:55:33.427Z,19.79
2019-06-26T06:56:33.424Z,19.80
2019-06-26T06:57:33.395Z,19.68
2019-06-26T06:58:33.377Z,19.70
2019-06-26T06:59:33.404Z,19.76
2019-06-26T07:00:33.377Z,19.71
2019-06-26T07:01:33.353Z,19.75
2019-06-26T07:02:33.344Z,19.82
2019-06-26T07:03:33.325Z,19.87
2019-06-26T07:04:33.334Z,19.92
2019-06-26T07:05:33.306Z,19.90
2019-06-26T07:06:33.349Z,19.97
2019-06-26T07:07:33.283Z,19.97
2019-06-26T07:08:33.290Z,20.01
2019-06-26T07:09:33.292Z,20.04
2019-06-26T07:10:33.254Z,20.12
2019-06-26T07:11:33.243Z,20.04
2019-06-26T07:12:33.223Z,20.05
2019-06-26T07:13:33.306Z,20.15
2019-06-26T07:14:33.213Z,20.17
2019-06-26T07:15:33.204Z,20.27
2019-06-26T07:16:33.181Z,20.17
2019-06-26T07:17:33.181Z,20.08
2019-06-26T07:18:33.169Z,20.08
2019-06-26T07:19:33.181Z,20.16
2019-06-26T07:20:33.141Z,20.33
2019-06-26T07:21:33.131Z,20.51
2019-06-26T07:22:33.142Z,20.64
2019-06-26T07:23:33.123Z,20.75
2019-06-26T07:24:33.118Z,20.87
2019-06-26T07:25:33.088Z,20.88
2019-06-26T07:26:33.081Z,20.96
2019-06-26T07:27:33.099Z,20.98
2019-06-26T07:28:33.068Z,20.97
2019-06-26T07:29:33.048Z,20.81
2019-06-26T07:30:33.048Z,20.76
2019-06-26T07:31:33.047Z,20.76
2019-06-26T07:32:33.075Z,20.72
2019-06-26T07:33:33.012Z,20.83
2019-06-26T07:34:33.026Z,20.83
2019-06-26T07:35:33.001Z,20.76
2019-06-26T07:36:32.968Z,20.63
2019-06-26T07:37:32.956Z,20.66
2019-06-26T07:38:32.977Z,20.72
2019-06-26T07:39:32.992Z,20.78
2019-06-26T07:40:32.933Z,20.85
2019-06-26T07:41:32.926Z,20.82
2019-06-26T07:42:32.962Z,20.91
2019-06-26T07:43:32.917Z,21.03
2019-06-26T07:44:32.885Z,21.15
2019-06-26T07:45:32.881Z,21.27
2019-06-26T07:46:32.865Z,21.33
2019-06-26T07:47:42.972Z,21.34
2019-06-26T07:48:33.854Z,21.42
2019-06-26T07:49:32.868Z,21.49
2019-06-26T07:50:32.852Z,21.30
2019-06-26T07:51:32.822Z,21.19
2019-06-26T07:52:32.810Z,21.13
2019-06-26T07:53:32.811Z,21.52
2019-06-26T07:54:32.796Z,21.96
2019-06-26T07:55:32.776Z,24.06
2019-06-26T07:56:32.769Z,25.94
2019-06-26T07:57:32.757Z,27.65
2019-06-26T07:58:32.741Z,28.28
2019-06-26T07:59:32.797Z,28.70
2019-06-26T08:00:32.739Z,29.27
2019-06-26T08:01:32.700Z,29.29
2019-06-26T08:02:32.696Z,27.76
2019-06-26T08:03:32.679Z,27.01
2019-06-26T08:04:32.705Z,26.69
2019-06-26T08:05:32.669Z,26.42
2019-06-26T08:06:32.648Z,25.97
2019-06-26T08:07:32.638Z,27.05
2019-06-26T08:08:32.659Z,26.78
2019-06-26T08:09:32.637Z,26.01
2019-06-26T08:10:33.346Z,25.49
2019-06-26T08:11:32.598Z,25.09
2019-06-26T08:12:32.587Z,24.80
2019-06-26T08:13:32.575Z,24.44
2019-06-26T08:14:32.579Z,24.04
2019-06-26T08:15:32.567Z,23.60
2019-06-26T08:16:34.484Z,23.22
2019-06-26T08:17:32.550Z,23.03
2019-06-26T08:18:32.528Z,23.01
2019-06-26T08:19:32.534Z,23.11
2019-06-26T08:20:32.523Z,23.29
2019-06-26T08:21:32.495Z,23.87
2019-06-26T08:22:32.485Z,24.06
2019-06-26T08:23:32.476Z,23.67
2019-06-26T08:24:32.473Z,23.67
2019-06-26T08:25:32.574Z,23.69
2019-06-26T08:26:32.434Z,23.77
2019-06-26T08:27:32.436Z,23.45
2019-06-26T08:28:32.470Z,23.18
2019-06-26T08:29:32.414Z,23.16
2019-06-26T08:30:32.423Z,23.21
2019-06-26T08:31:32.406Z,23.25
2019-06-26T08:32:32.386Z,23.11
2019-06-26T08:33:32.372Z,23.07
2019-06-26T08:34:32.370Z,23.14
2019-06-26T08:35:32.379Z,23.09
2019-06-26T08:36:32.341Z,23.16
2019-06-26T08:37:32.400Z,23.32
2019-06-26T08:38:32.974Z,24.04
2019-06-26T08:39:32.301Z,25.31
2019-06-26T08:40:32.291Z,24.46
2019-06-26T08:41:32.291Z,23.72
2019-06-26T08:42:32.272Z,23.18
2019-06-26T08:43:32.970Z,22.84
2019-06-26T08:44:32.249Z,22.88
2019-06-26T08:45:32.241Z,23.06
2019-06-26T08:46:32.241Z,23.60
2019-06-26T08:47:32.219Z,23.41
2019-06-26T08:48:39.365Z,22.99
2019-06-26T08:49:33.200Z,22.64
2019-06-26T08:50:32.190Z,22.60
2019-06-26T08:51:32.213Z,22.61
2019-06-26T08:52:32.192Z,22.84
2019-06-26T08:53:32.148Z,22.79
2019-06-26T08:54:32.182Z,22.56
2019-06-26T08:55:32.139Z,22.38
2019-06-26T08:56:32.141Z,22.36
2019-06-26T08:57:32.122Z,22.29
2019-06-26T08:58:32.098Z,22.26
2019-06-26T08:59:33.029Z,22.20
2019-06-26T09:00:32.097Z,21.98
2019-06-26T09:01:32.161Z,21.67
2019-06-26T09:02:32.055Z,21.16
2019-06-26T09:03:32.046Z,20.85
2019-06-26T09:04:32.054Z,20.85
2019-06-26T09:05:46.949Z,20.87
2019-06-26T09:06:33.015Z,20.81
2019-06-26T09:07:32.065Z,20.76
2019-06-26T09:08:32.071Z,20.69
2019-06-26T09:09:31.987Z,20.63
2019-06-26T09:10:31.974Z,20.42
2019-06-26T09:11:31.976Z,20.37
2019-06-26T09:12:31.954Z,20.42
2019-06-26T09:13:31.954Z,20.50
2019-06-26T09:14:31.932Z,20.42
2019-06-26T09:15:31.921Z,20.46
2019-06-26T09:16:31.955Z,20.44
2019-06-26T09:17:31.901Z,20.50
2019-06-26T09:18:35.965Z,20.35
2019-06-26T09:19:31.882Z,20.37
2019-06-26T09:20:31.870Z,20.37
2019-06-26T09:21:31.870Z,20.44
2019-06-26T09:22:31.881Z,20.44
2019-06-26T09:23:31.843Z,20.42
2019-06-26T09:24:31.821Z,20.41
2019-06-26T09:25:31.819Z,20.42
2019-06-26T09:26:31.820Z,20.27
2019-06-26T09:27:31.790Z,20.22
2019-06-26T09:28:31.779Z,20.31
2019-06-26T09:29:31.780Z,20.37
2019-06-26T09:30:31.780Z,20.40
2019-06-26T09:31:31.789Z,20.38
2019-06-26T09:32:31.749Z,20.34
2019-06-26T09:33:32.545Z,20.34
2019-06-26T09:34:31.717Z,20.26
2019-06-26T09:35:31.707Z,20.16
2019-06-26T09:36:31.695Z,20.08
2019-06-26T09:37:31.712Z,20.13
2019-06-26T09:38:31.680Z,20.25
2019-06-26T09:39:31.658Z,20.33
2019-06-26T09:40:32.214Z,20.37
2019-06-26T09:41:31.656Z,20.48
2019-06-26T09:42:31.629Z,20.51
2019-06-26T09:43:31.635Z,20.42
2019-06-26T09:44:31.615Z,20.37
2019-06-26T09:45:31.647Z,20.40
2019-06-26T09:46:31.638Z,20.40
2019-06-26T09:47:31.574Z,20.40
2019-06-26T09:48:31.603Z,20.44
2019-06-26T09:49:31.585Z,20.40
2019-06-26T09:50:31.553Z,20.44
2019-06-26T09:51:31.546Z,20.37
2019-06-26T09:52:31.541Z,20.50
2019-06-26T09:53:45.985Z,20.56
2019-06-26T09:54:33.302Z,20.60
2019-06-26T09:55:31.494Z,20.61
2019-06-26T09:56:31.481Z,20.64
2019-06-26T09:57:31.471Z,20.71
2019-06-26T09:58:31.481Z,20.69
2019-06-26T09:59:31.474Z,20.66
2019-06-26T10:00:31.442Z,20.63
2019-06-26T10:01:31.440Z,20.69
2019-06-26T10:02:31.432Z,20.75
2019-06-26T10:03:31.410Z,20.81
2019-06-26T10:04:31.389Z,20.87
2019-06-26T10:05:31.390Z,20.71
2019-06-26T10:06:31.407Z,20.68
2019-06-26T10:07:31.377Z,20.71
2019-06-26T10:08:31.348Z,20.60
2019-06-26T10:09:31.341Z,20.50
2019-06-26T10:10:31.888Z,20.46
2019-06-26T10:11:31.395Z,20.44
2019-06-26T10:12:31.308Z,20.46
2019-06-26T10:13:31.306Z,20.56
2019-06-26T10:14:46.736Z,20.60
2019-06-26T10:15:32.311Z,20.60
2019-06-26T10:16:31.286Z,20.73
2019-06-26T10:17:31.311Z,20.83
2019-06-26T10:18:31.245Z,20.91
2019-06-26T10:19:31.246Z,20.90
2019-06-26T10:20:31.234Z,20.83
2019-06-26T10:21:31.215Z,20.75
2019-06-26T10:22:31.214Z,20.71
2019-06-26T10:23:31.211Z,20.51
2019-06-26T10:24:31.194Z,20.41
2019-06-26T10:25:31.181Z,20.40
2019-06-26T10:26:32.488Z,20.41
2019-06-26T10:27:31.163Z,20.54
2019-06-26T10:28:31.164Z,20.53
2019-06-26T10:29:31.134Z,20.57
2019-06-26T10:30:31.123Z,20.69
2019-06-26T10:31:31.111Z,20.75
2019-06-26T10:32:31.091Z,20.76
2019-06-26T10:33:31.081Z,20.82
2019-06-26T10:34:31.090Z,20.85
2019-06-26T10:35:31.076Z,20.87
2019-06-26T10:36:31.061Z,20.79
2019-06-26T10:37:31.040Z,20.91
2019-06-26T10:38:31.048Z,20.96
2019-06-26T10:39:31.022Z,20.97
2019-06-26T10:40:31.018Z,20.96
2019-06-26T10:41:31.010Z,20.81
2019-06-26T10:42:30.995Z,20.85
2019-06-26T10:43:30.981Z,20.71
2019-06-26T10:44:31.024Z,20.76
2019-06-26T10:45:31.110Z,20.81
2019-06-26T10:46:30.966Z,20.87
2019-06-26T10:47:30.948Z,20.94
2019-06-26T10:48:30.948Z,21.01
2019-06-26T10:49:31.805Z,20.83
2019-06-26T10:50:30.921Z,20.78
2019-06-26T10:51:31.538Z,20.78
2019-06-26T10:52:30.887Z,20.85
2019-06-26T10:53:30.934Z,20.90
2019-06-26T10:54:30.874Z,21.05
2019-06-26T10:55:30.875Z,21.11
2019-06-26T10:56:30.850Z,21.08
2019-06-26T10:57:30.835Z,21.09
2019-06-26T10:58:30.833Z,21.15
2019-06-26T10:59:30.856Z,21.11
2019-06-26T11:00:30.801Z,21.13
2019-06-26T11:01:30.793Z,21.26
2019-06-26T11:02:30.812Z,21.36
2019-06-26T11:03:30.782Z,21.49
2019-06-26T11:04:30.764Z,21.79
2019-06-26T11:05:30.750Z,22.14
2019-06-26T11:06:30.741Z,22.48
2019-06-26T11:07:30.782Z,22.69
2019-06-26T11:08:30.756Z,22.82
2019-06-26T11:09:30.743Z,23.04
2019-06-26T11:10:30.692Z,23.26
2019-06-26T11:11:30.700Z,23.37
2019-06-26T11:12:30.713Z,23.29
2019-06-26T11:13:30.661Z,23.34
2019-06-26T11:14:30.659Z,23.49
2019-06-26T11:15:30.660Z,23.67
2019-06-26T11:16:30.768Z,23.79
2019-06-26T11:17:30.620Z,23.78
2019-06-26T11:18:30.610Z,23.53
2019-06-26T11:19:43.448Z,23.35
2019-06-26T11:20:31.639Z,23.42
2019-06-26T11:21:30.569Z,23.34
2019-06-26T11:22:30.577Z,23.16
2019-06-26T11:23:30.582Z,23.15
2019-06-26T11:24:30.553Z,23.22
2019-06-26T11:25:30.537Z,23.34
2019-06-26T11:26:30.531Z,23.32
2019-06-26T11:27:30.508Z,23.32
2019-06-26T11:28:30.516Z,23.15
2019-06-26T11:29:30.509Z,23.14
2019-06-26T11:30:30.493Z,23.22
2019-06-26T11:31:30.472Z,23.23
2019-06-26T11:32:30.477Z,23.22
2019-06-26T11:33:30.478Z,23.29
2019-06-26T11:34:30.451Z,23.06
2019-06-26T11:35:30.494Z,23.04
2019-06-26T11:36:30.474Z,23.00
2019-06-26T11:37:30.424Z,22.89
2019-06-26T11:38:30.394Z,22.85
2019-06-26T11:39:30.414Z,22.82
2019-06-26T11:40:30.442Z,22.88
2019-06-26T11:41:30.365Z,22.75
2019-06-26T11:42:32.699Z,22.57
2019-06-26T11:43:30.332Z,22.63
2019-06-26T11:44:30.334Z,22.70
2019-06-26T11:45:30.355Z,22.78
2019-06-26T11:46:30.324Z,22.85
2019-06-26T11:47:30.313Z,22.99
2019-06-26T11:48:30.281Z,23.03
2019-06-26T11:49:30.282Z,23.06
2019-06-26T11:50:30.298Z,22.97
2019-06-26T11:51:30.263Z,23.01
2019-06-26T11:52:30.242Z,23.14
2019-06-26T11:53:30.270Z,23.15
2019-06-26T11:54:30.238Z,23.22
2019-06-26T11:55:30.220Z,23.41
2019-06-26T11:56:30.207Z,23.42
2019-06-26T11:57:30.191Z,23.18
2019-06-26T11:58:30.209Z,23.14
2019-06-26T11:59:30.170Z,23.15
2019-06-26T12:00:30.962Z,23.14
2019-06-26T12:01:30.183Z,23.14
2019-06-26T12:02:30.137Z,23.18
2019-06-26T12:03:30.157Z,23.21
2019-06-26T12:04:30.137Z,23.26
2019-06-26T12:05:31.123Z,23.38
2019-06-26T12:06:31.001Z,23.37
2019-06-26T12:07:30.130Z,23.37
2019-06-26T12:08:30.076Z,23.45
2019-06-26T12:09:30.065Z,23.42
2019-06-26T12:10:30.079Z,23.39
2019-06-26T12:11:30.052Z,23.26
2019-06-26T12:12:30.050Z,23.29
2019-06-26T12:13:33.311Z,23.26
2019-06-26T12:14:30.026Z,23.21
2019-06-26T12:15:30.015Z,23.26
2019-06-26T12:16:29.997Z,23.26
2019-06-26T12:17:30.023Z,23.29
2019-06-26T12:18:29.987Z,23.29
2019-06-26T12:19:29.962Z,23.26
2019-06-26T12:20:29.943Z,23.23
2019-06-26T12:21:29.943Z,23.25
2019-06-26T12:22:29.924Z,23.35
2019-06-26T12:23:29.943Z,23.38
2019-06-26T12:24:29.900Z,23.34
2019-06-26T12:25:29.907Z,23.29
2019-06-26T12:26:29.885Z,23.26
2019-06-26T12:27:29.873Z,23.35
2019-06-26T12:28:29.868Z,23.34
2019-06-26T12:29:32.910Z,23.35
2019-06-26T12:30:29.861Z,23.31
2019-06-26T12:31:29.835Z,23.35
2019-06-26T12:32:29.835Z,23.34
2019-06-26T12:33:29.810Z,23.18
2019-06-26T12:34:29.977Z,23.12
2019-06-26T12:35:29.801Z,23.11
2019-06-26T12:36:29.790Z,23.18
2019-06-26T12:37:37.777Z,23.18
2019-06-26T12:38:30.762Z,23.19
2019-06-26T12:39:29.768Z,23.25
2019-06-26T12:40:31.258Z,23.32
2019-06-26T12:41:29.750Z,23.29
2019-06-26T12:42:29.731Z,23.31
2019-06-26T12:43:29.699Z,23.39
2019-06-26T12:44:29.697Z,23.42
2019-06-26T12:45:29.716Z,23.38
2019-06-26T12:46:30.261Z,23.42
2019-06-26T12:47:29.678Z,23.41
2019-06-26T12:48:29.653Z,23.39
2019-06-26T12:49:29.639Z,23.41
2019-06-26T12:50:35.234Z,23.26
2019-06-26T12:51:30.655Z,23.32
2019-06-26T12:52:29.605Z,23.37